Time;durP1;ratioP1;P1;durP2;ratioP2;P2;SDS_P1;SDS_P2;PMS_P1;PMS_P2;Temp;Humidity;BMP_temperature;BMP_pressure;BME280_temperature;BME280_humidity;BME280_pressure;Samples;Min_cycle;Max_cycle;Signal;HPM_P1;HPM_P2
2022/11/30 00:01:59;;;;;;;28.87;20.47;;;7.00;1.00;;;;;;5015940;28;20192;-56
2022/11/30 00:04:25;;;;;;;29.20;19.77;;;7.00;1.00;;;;;;5016120;28;21005;-54
2022/11/30 00:06:55;;;;;;;27.43;19.90;;;7.00;1.00;;;;;;5016037;28;20189;-55
2022/11/30 00:09:21;;;;;;;30.17;21.83;;;7.00;1.00;;;;;;4998710;28;20320;-55
2022/11/30 00:11:47;;;;;;;31.70;19.73;;;7.00;1.00;;;;;;4996091;28;20471;-54
2022/11/30 00:14:12;;;;;;;30.20;19.83;;;7.00;1.00;;;;;;4996341;28;20432;-55
2022/11/30 00:16:38;;;;;;;30.20;19.73;;;7.10;1.00;;;;;;4978649;28;20224;-55
2022/11/30 00:19:03;;;;;;;30.20;21.00;;;7.10;1.00;;;;;;4995552;28;20197;-54
2022/11/30 00:21:29;;;;;;;27.93;19.53;;;7.00;1.00;;;;;;4995979;28;20213;-54
2022/11/30 00:23:55;;;;;;;26.87;19.00;;;7.00;1.00;;;;;;4995916;28;20193;-55
2022/11/30 00:26:23;;;;;;;31.77;20.87;;;7.20;1.00;;;;;;4995993;28;20191;-55
2022/11/30 00:28:49;;;;;;;26.73;18.70;;;7.10;1.00;;;;;;4995712;28;20189;-55
2022/11/30 00:31:17;;;;;;;28.10;19.33;;;7.10;1.00;;;;;;4995708;28;20961;-56
2022/11/30 00:33:43;;;;;;;28.63;18.83;;;7.20;1.00;;;;;;4995649;28;20952;-55
2022/11/30 00:36:20;;;;;;;31.70;21.37;;;7.10;1.00;;;;;;4995557;28;20522;-55
2022/11/30 00:38:47;;;;;;;29.67;17.70;;;7.00;1.00;;;;;;4995498;28;20440;-54
2022/11/30 00:41:13;;;;;;;25.63;18.20;;;7.10;1.00;;;;;;4995466;28;20439;-53
2022/11/30 00:43:39;;;;;;;27.30;19.17;;;7.00;1.00;;;;;;4995942;28;20429;-56
2022/11/30 00:46:07;;;;;;;30.73;19.27;;;7.00;1.00;;;;;;4995235;28;20470;-54
2022/11/30 00:48:34;;;;;;;27.03;18.60;;;7.00;1.00;;;;;;4995747;28;20252;-54
2022/11/30 00:51:00;;;;;;;28.73;20.13;;;7.00;1.00;;;;;;4995343;28;20459;-57
2022/11/30 00:53:25;;;;;;;24.20;18.23;;;7.10;1.00;;;;;;4995382;28;20411;-54
2022/11/30 00:55:51;;;;;;;30.30;20.07;;;7.10;1.00;;;;;;4977065;28;20473;-55
2022/11/30 00:58:17;;;;;;;28.80;19.17;;;7.10;1.00;;;;;;4976059;28;20285;-54
2022/11/30 01:00:43;;;;;;;25.50;18.47;;;7.10;1.00;;;;;;4976025;28;20437;-54
2022/11/30 01:03:09;;;;;;;30.70;20.80;;;7.10;1.00;;;;;;4975789;28;20175;-55
2022/11/30 01:05:35;;;;;;;23.47;16.90;;;7.10;1.00;;;;;;4975781;28;20430;-54
2022/11/30 01:08:06;;;;;;;29.67;20.43;;;7.00;1.00;;;;;;4975751;28;20442;-54
2022/11/30 01:10:37;;;;;;;28.03;18.00;;;7.10;1.00;;;;;;4975774;28;20711;-55
2022/11/30 01:13:03;;;;;;;27.50;18.37;;;7.10;1.00;;;;;;4975601;28;20437;-55
2022/11/30 01:15:29;;;;;;;24.83;17.77;;;7.20;1.00;;;;;;4975498;28;20491;-56
2022/11/30 01:17:57;;;;;;;25.00;17.27;;;7.10;1.00;;;;;;4988436;28;20948;-55
2022/11/30 01:20:23;;;;;;;25.40;18.90;;;7.10;1.00;;;;;;4994967;28;20530;-55
2022/11/30 01:22:48;;;;;;;27.20;18.07;;;7.10;1.00;;;;;;4994741;28;20512;-54
2022/11/30 01:25:14;;;;;;;26.97;18.90;;;7.10;1.00;;;;;;4994609;28;20189;-54
2022/11/30 01:27:39;;;;;;;27.80;18.73;;;7.10;1.00;;;;;;4994795;28;20182;-54
2022/11/30 01:30:06;;;;;;;27.07;17.90;;;7.00;1.00;;;;;;4994150;28;20265;-54
2022/11/30 01:32:31;;;;;;;28.07;18.37;;;7.00;1.00;;;;;;4986347;28;20214;-54
2022/11/30 01:34:57;;;;;;;26.90;18.77;;;7.00;1.00;;;;;;4975667;28;20504;-55
2022/11/30 01:37:23;;;;;;;27.20;18.23;;;7.00;1.00;;;;;;4990040;28;20211;-56
2022/11/30 01:39:48;;;;;;;25.33;18.77;;;7.00;1.00;;;;;;4994653;28;20235;-54
2022/11/30 01:42:17;;;;;;;28.17;18.63;;;7.00;1.00;;;;;;4994410;28;20189;-54
2022/11/30 01:44:57;;;;;;;23.63;17.43;;;7.10;1.00;;;;;;4994418;28;20179;-54
2022/11/30 01:47:31;;;;;;;25.90;18.27;;;7.00;1.00;;;;;;4993960;28;20556;-53
2022/11/30 01:50:20;;;;;;;28.27;17.97;;;7.00;1.00;;;;;;4994462;28;20440;-55
2022/11/30 01:52:49;;;;;;;23.80;17.17;;;7.00;1.00;;;;;;4993524;28;20440;-54
2022/11/30 01:55:23;;;;;;;23.40;17.83;;;7.00;1.00;;;;;;4994168;28;20404;-54
2022/11/30 01:57:51;;;;;;;24.50;17.60;;;7.10;1.00;;;;;;4994149;28;20443;-53
2022/11/30 02:00:18;;;;;;;25.90;17.97;;;7.00;1.00;;;;;;4994020;28;20504;-55
2022/11/30 02:03:09;;;;;;;25.30;18.27;;;7.00;1.00;;;;;;4994131;28;20439;-53
2022/11/30 02:05:37;;;;;;;29.60;18.70;;;7.00;1.00;;;;;;4994006;28;20531;-54
2022/11/30 02:08:03;;;;;;;24.40;17.47;;;7.00;1.00;;;;;;4993914;28;20463;-55
2022/11/30 02:10:31;;;;;;;28.60;19.80;;;7.00;1.00;;;;;;4993773;28;20433;-54
2022/11/30 02:12:59;;;;;;;23.50;18.50;;;6.90;1.00;;;;;;4994037;28;20930;-55
2022/11/30 02:15:30;;;;;;;28.17;18.53;;;6.90;1.00;;;;;;4993967;28;20432;-54
2022/11/30 02:18:12;;;;;;;29.00;19.87;;;6.90;1.00;;;;;;4993809;28;20504;-55
2022/11/30 02:20:43;;;;;;;23.60;19.23;;;6.90;1.00;;;;;;4993834;28;20460;-54
2022/11/30 02:23:12;;;;;;;23.53;17.97;;;6.90;1.00;;;;;;4993841;28;20808;-55
2022/11/30 02:25:52;;;;;;;24.10;17.03;;;6.90;1.00;;;;;;4993766;28;20899;-55
2022/11/30 02:28:18;;;;;;;26.10;18.03;;;6.80;1.00;;;;;;4993727;28;20445;-54
2022/11/30 02:30:48;;;;;;;26.07;18.17;;;6.80;1.00;;;;;;4993937;28;20495;-54
2022/11/30 02:33:17;;;;;;;25.17;17.87;;;6.80;1.00;;;;;;4993853;28;20197;-55
2022/11/30 02:35:47;;;;;;;26.77;18.27;;;6.80;1.00;;;;;;4993647;28;20428;-53
2022/11/30 02:38:14;;;;;;;28.13;18.30;;;6.80;1.00;;;;;;4994017;28;20418;-56
2022/11/30 02:40:40;;;;;;;26.83;17.90;;;6.70;1.00;;;;;;4993639;28;20493;-53
2022/11/30 02:43:06;;;;;;;27.23;18.17;;;6.70;1.00;;;;;;4993441;28;20480;-54
2022/11/30 02:45:49;;;;;;;25.63;17.07;;;6.70;1.00;;;;;;4993503;28;20236;-54
2022/11/30 02:48:20;;;;;;;23.67;17.20;;;6.70;1.00;;;;;;4993366;28;20468;-53
2022/11/30 02:50:52;;;;;;;29.00;18.53;;;6.70;1.00;;;;;;4993821;28;20435;-54
2022/11/30 02:53:19;;;;;;;26.30;17.43;;;6.60;1.00;;;;;;4993221;28;20519;-54
2022/11/30 02:55:44;;;;;;;26.30;17.70;;;6.60;1.00;;;;;;4993650;28;20404;-54
2022/11/30 02:58:11;;;;;;;28.97;19.30;;;6.70;1.00;;;;;;4993724;28;20944;-54
2022/11/30 03:00:36;;;;;;;24.00;17.60;;;6.60;1.00;;;;;;4993339;28;20178;-53
2022/11/30 03:03:02;;;;;;;28.07;17.43;;;6.60;1.00;;;;;;4993419;28;20427;-55
2022/11/30 03:05:28;;;;;;;25.37;19.10;;;6.70;1.00;;;;;;4993438;28;20709;-54
2022/11/30 03:07:53;;;;;;;23.37;16.50;;;6.70;1.00;;;;;;4993077;28;20178;-55
2022/11/30 03:10:19;;;;;;;28.63;18.93;;;7.70;1.00;;;;;;4993201;28;20189;-54
2022/11/30 03:12:44;;;;;;;23.80;16.17;;;6.60;1.00;;;;;;4993264;28;20184;-55
2022/11/30 03:15:10;;;;;;;23.67;16.80;;;6.60;1.00;;;;;;4993561;28;20235;-55
2022/11/30 03:17:36;;;;;;;28.20;18.30;;;6.60;1.00;;;;;;4993198;28;20247;-54
2022/11/30 03:20:01;;;;;;;25.70;16.87;;;6.50;1.00;;;;;;4993206;28;20189;-53
2022/11/30 03:22:27;;;;;;;28.43;18.60;;;6.50;1.00;;;;;;4993120;28;20219;-55
2022/11/30 03:24:53;;;;;;;25.30;18.17;;;6.50;1.00;;;;;;4993429;28;20189;-55
2022/11/30 03:27:18;;;;;;;28.70;18.63;;;6.50;1.00;;;;;;4993184;28;20543;-54
2022/11/30 03:29:44;;;;;;;24.87;17.43;;;6.50;1.00;;;;;;4993298;28;20263;-56
2022/11/30 03:32:09;;;;;;;25.23;17.23;;;6.50;1.00;;;;;;4990954;28;20201;-55
2022/11/30 03:34:35;;;;;;;24.07;17.80;;;6.50;1.00;;;;;;4973857;28;20299;-54
2022/11/30 03:37:00;;;;;;;29.00;18.50;;;6.30;1.00;;;;;;4983083;28;20217;-53
2022/11/30 03:39:26;;;;;;;27.57;18.30;;;6.30;1.00;;;;;;4993075;28;20191;-55
2022/11/30 03:41:52;;;;;;;27.90;18.73;;;6.20;1.00;;;;;;4993010;28;20264;-55
2022/11/30 03:44:18;;;;;;;28.03;19.13;;;6.20;1.00;;;;;;4993033;28;20280;-55
2022/11/30 03:46:44;;;;;;;25.47;18.90;;;6.20;1.00;;;;;;4992613;28;20230;-54
2022/11/30 03:49:09;;;;;;;27.57;18.67;;;6.10;1.00;;;;;;4993069;28;20499;-55
2022/11/30 03:51:35;;;;;;;25.90;18.87;;;6.10;1.00;;;;;;4992883;28;20191;-55
2022/11/30 03:54:00;;;;;;;30.07;20.53;;;6.10;1.00;;;;;;4994415;28;20244;-55
2022/11/30 03:56:26;;;;;;;30.07;20.30;;;6.10;1.00;;;;;;4996573;28;20296;-54
2022/11/30 03:58:52;;;;;;;28.10;19.40;;;6.10;1.00;;;;;;4996580;28;20224;-53
2022/11/30 04:01:22;;;;;;;32.03;21.57;;;6.10;1.00;;;;;;4996373;28;20199;-54
2022/11/30 04:03:50;;;;;;;25.60;18.03;;;6.10;1.00;;;;;;4996409;28;20188;-54
2022/11/30 04:06:16;;;;;;;29.47;18.70;;;6.00;1.00;;;;;;4996233;28;20855;-55
2022/11/30 04:08:42;;;;;;;27.70;19.37;;;6.10;1.00;;;;;;4996306;28;20436;-54
2022/11/30 04:11:08;;;;;;;27.17;19.30;;;6.10;1.00;;;;;;4996312;28;20448;-55
2022/11/30 04:13:35;;;;;;;28.83;18.83;;;6.10;1.00;;;;;;4996075;28;20447;-54
2022/11/30 04:16:02;;;;;;;25.67;18.43;;;6.00;1.00;;;;;;4996123;28;20235;-54
2022/11/30 04:18:29;;;;;;;28.80;18.93;;;6.00;1.00;;;;;;4995882;28;20516;-53
2022/11/30 04:20:56;;;;;;;30.73;18.17;;;6.00;1.00;;;;;;4995936;28;20441;-55
2022/11/30 04:23:23;;;;;;;29.97;20.37;;;5.90;1.00;;;;;;4996057;28;20428;-54
2022/11/30 04:25:49;;;;;;;26.63;18.40;;;5.90;1.00;;;;;;4995858;28;20771;-53
2022/11/30 04:28:15;;;;;;;27.50;18.53;;;5.80;1.00;;;;;;4995992;28;20436;-55
2022/11/30 04:30:42;;;;;;;29.57;19.80;;;5.80;1.00;;;;;;4995725;28;20315;-55
2022/11/30 04:33:07;;;;;;;34.27;20.07;;;5.90;1.00;;;;;;4996146;28;20824;-53
2022/11/30 04:35:37;;;;;;;32.17;20.27;;;5.80;1.00;;;;;;4995715;28;20520;-53
2022/11/30 04:38:03;;;;;;;31.70;19.83;;;5.70;1.00;;;;;;4995809;28;20185;-54
2022/11/30 04:40:28;;;;;;;32.93;23.00;;;5.80;1.00;;;;;;4995702;28;20785;-54
2022/11/30 04:42:54;;;;;;;30.37;20.83;;;5.80;1.00;;;;;;4995547;28;20313;-55
2022/11/30 04:45:19;;;;;;;28.63;19.30;;;5.80;1.00;;;;;;4995679;28;20189;-54
2022/11/30 04:47:45;;;;;;;28.27;20.20;;;5.80;1.00;;;;;;4995780;28;20199;-54
2022/11/30 04:50:11;;;;;;;31.17;20.73;;;5.70;1.00;;;;;;4995316;28;20215;-55
2022/11/30 04:52:36;;;;;;;32.40;21.80;;;5.70;1.00;;;;;;4995541;28;20244;-54
2022/11/30 04:55:03;;;;;;;33.87;21.47;;;5.70;1.00;;;;;;4995309;28;20189;-54
2022/11/30 04:57:29;;;;;;;32.70;21.00;;;5.60;1.00;;;;;;4995200;28;20221;-53
2022/11/30 04:59:54;;;;;;;31.40;19.87;;;5.60;1.00;;;;;;4995143;28;20449;-55
2022/11/30 05:02:20;;;;;;;29.63;19.47;;;5.60;1.00;;;;;;4995283;28;20433;-55
2022/11/30 05:04:46;;;;;;;30.37;20.07;;;5.70;1.00;;;;;;4981758;28;20175;-55
2022/11/30 05:07:11;;;;;;;31.43;20.90;;;5.70;1.00;;;;;;4975732;28;20194;-54
2022/11/30 05:09:37;;;;;;;33.10;20.90;;;5.70;1.00;;;;;;4975857;28;20197;-56
2022/11/30 05:12:03;;;;;;;34.77;21.50;;;5.70;1.00;;;;;;4975684;28;20620;-54
2022/11/30 05:14:28;;;;;;;33.10;21.43;;;5.60;1.00;;;;;;4978381;28;20183;-56
2022/11/30 05:16:54;;;;;;;30.60;20.00;;;5.80;1.00;;;;;;5006355;28;20429;-56
2022/11/30 05:19:19;;;;;;;27.57;19.90;;;5.80;1.00;;;;;;5014634;28;20189;-56
2022/11/30 05:21:45;;;;;;;29.67;20.90;;;5.70;1.00;;;;;;5004627;28;20623;-57
2022/11/30 05:24:11;;;;;;;31.47;20.70;;;5.70;1.00;;;;;;4994933;28;20198;-57
2022/11/30 05:26:37;;;;;;;30.10;19.77;;;5.80;1.00;;;;;;4999813;28;20654;-56
2022/11/30 05:29:04;;;;;;;30.67;19.47;;;5.60;1.00;;;;;;4990414;28;20257;-57
2022/11/30 05:31:29;;;;;;;28.83;19.80;;;5.70;1.00;;;;;;5000158;28;20472;-55
2022/11/30 05:33:55;;;;;;;29.60;18.53;;;5.70;1.00;;;;;;4994374;28;20795;-56
2022/11/30 05:36:21;;;;;;;29.37;20.23;;;5.80;1.00;;;;;;4994126;28;20208;-53
2022/11/30 05:38:47;;;;;;;28.30;19.77;;;5.80;1.00;;;;;;4994395;28;20231;-54
2022/11/30 05:41:12;;;;;;;26.40;18.57;;;5.90;1.00;;;;;;4994350;28;20440;-53
2022/11/30 05:43:38;;;;;;;24.57;16.50;;;5.80;1.00;;;;;;4994163;28;20224;-54
2022/11/30 05:46:06;;;;;;;25.77;18.47;;;5.80;1.00;;;;;;4994123;28;20288;-55
2022/11/30 05:48:32;;;;;;;27.30;18.00;;;5.80;1.00;;;;;;4994100;28;20188;-54
2022/11/30 05:51:23;;;;;;;30.87;18.57;;;5.80;1.00;;;;;;4994246;28;20447;-56
2022/11/30 05:53:49;;;;;;;24.90;17.60;;;5.70;1.00;;;;;;4991228;28;20660;-54
2022/11/30 05:56:18;;;;;;;24.20;17.57;;;5.70;1.00;;;;;;4994000;28;20498;-54
2022/11/30 05:58:44;;;;;;;28.67;18.37;;;5.70;1.00;;;;;;4975919;28;20186;-57
2022/11/30 06:01:24;;;;;;;30.60;17.13;;;5.70;1.00;;;;;;4974585;28;20407;-54
2022/11/30 06:03:50;;;;;;;25.87;18.67;;;5.70;1.00;;;;;;4974422;28;20432;-54
2022/11/30 06:06:16;;;;;;;26.57;17.90;;;5.70;1.00;;;;;;4974682;28;20433;-54
2022/11/30 06:08:42;;;;;;;24.57;16.90;;;5.70;1.00;;;;;;4974752;28;20190;-54
2022/11/30 06:11:08;;;;;;;27.30;18.70;;;5.60;1.00;;;;;;4974844;28;20457;-56
2022/11/30 06:13:34;;;;;;;23.83;16.73;;;5.60;1.00;;;;;;4974506;28;20451;-53
2022/11/30 06:16:01;;;;;;;25.23;17.20;;;5.70;1.00;;;;;;4973584;28;20637;-54
2022/11/30 06:18:26;;;;;;;25.73;16.60;;;5.70;1.00;;;;;;4974255;28;20194;-55
2022/11/30 06:20:52;;;;;;;24.07;16.97;;;5.60;1.00;;;;;;4974399;28;20437;-55
2022/11/30 06:23:17;;;;;;;25.27;17.80;;;5.50;1.00;;;;;;4974079;28;20248;-54
2022/11/30 06:25:43;;;;;;;23.80;16.20;;;5.50;1.00;;;;;;4974308;28;20667;-56
2022/11/30 06:28:09;;;;;;;26.27;17.50;;;5.60;1.00;;;;;;4974700;28;20237;-56
2022/11/30 06:30:35;;;;;;;26.60;17.00;;;5.60;1.00;;;;;;4957099;28;20398;-55
2022/11/30 06:33:01;;;;;;;27.27;17.70;;;5.50;1.00;;;;;;4974640;28;20439;-55
2022/11/30 06:35:27;;;;;;;26.77;17.60;;;5.50;1.00;;;;;;4974411;28;20462;-54
2022/11/30 06:37:53;;;;;;;23.77;16.67;;;5.50;1.00;;;;;;4974089;28;20865;-55
2022/11/30 06:40:19;;;;;;;26.87;17.17;;;5.40;1.00;;;;;;4974244;28;20225;-55
2022/11/30 06:42:45;;;;;;;24.20;16.60;;;5.40;1.00;;;;;;4974216;28;20434;-54
2022/11/30 06:45:11;;;;;;;27.33;19.10;;;5.50;1.00;;;;;;4973955;28;20229;-54
2022/11/30 06:47:37;;;;;;;26.90;17.73;;;5.40;1.00;;;;;;4974149;28;20329;-53
2022/11/30 06:50:04;;;;;;;25.93;17.60;;;5.40;1.00;;;;;;4974307;28;20458;-55
2022/11/30 06:52:32;;;;;;;26.30;17.87;;;5.40;1.00;;;;;;4992371;28;20187;-55
2022/11/30 06:54:58;;;;;;;22.37;16.60;;;5.40;1.00;;;;;;4993529;28;20440;-54
2022/11/30 06:57:27;;;;;;;25.63;16.67;;;5.30;1.00;;;;;;4984418;28;20503;-56
2022/11/30 06:59:53;;;;;;;25.13;17.43;;;5.30;1.00;;;;;;4973762;28;20186;-55
2022/11/30 07:02:19;;;;;;;25.90;17.57;;;5.30;1.00;;;;;;4974162;28;20424;-57
2022/11/30 07:04:47;;;;;;;26.37;18.30;;;5.30;1.00;;;;;;4974297;28;20193;-56
2022/11/30 07:07:13;;;;;;;26.50;18.13;;;5.30;1.00;;;;;;4973992;28;20593;-55
2022/11/30 07:09:38;;;;;;;24.00;17.77;;;5.20;1.00;;;;;;4973966;28;20441;-56
2022/11/30 07:12:04;;;;;;;24.90;17.13;;;5.30;1.00;;;;;;4974029;28;20633;-55
2022/11/30 07:14:30;;;;;;;23.80;16.60;;;5.30;1.00;;;;;;4973933;28;20245;-56
2022/11/30 07:16:56;;;;;;;26.30;16.97;;;5.30;1.00;;;;;;4974055;28;20464;-55
2022/11/30 07:19:22;;;;;;;26.53;16.07;;;5.30;1.00;;;;;;4974033;28;20715;-55
2022/11/30 07:21:48;;;;;;;26.93;18.23;;;5.30;1.00;;;;;;4973679;28;20404;-55
2022/11/30 07:26:59;;;;;;;26.00;16.73;;;5.30;1.00;;;;;;4973541;28;20260;-55
2022/11/30 07:29:25;;;;;;;23.33;16.17;;;5.40;1.00;;;;;;4976021;28;20472;-54
2022/11/30 07:31:51;;;;;;;25.87;17.17;;;5.50;1.00;;;;;;4977323;28;20468;-56
2022/11/30 07:34:17;;;;;;;26.03;17.37;;;5.50;1.00;;;;;;4977544;28;20595;-56
2022/11/30 07:36:44;;;;;;;24.30;17.60;;;5.40;1.00;;;;;;4977592;28;20438;-54
2022/11/30 07:39:10;;;;;;;30.37;18.67;;;5.40;1.00;;;;;;4977530;28;20442;-54
2022/11/30 07:41:36;;;;;;;27.07;17.20;;;5.40;1.00;;;;;;4977758;28;20531;-55
2022/11/30 07:44:07;;;;;;;27.33;17.00;;;5.40;1.00;;;;;;4976831;28;20466;-54
2022/11/30 07:46:34;;;;;;;24.53;16.07;;;5.40;1.00;;;;;;4976988;28;21004;-55
2022/11/30 07:49:04;;;;;;;28.67;17.60;;;5.50;1.00;;;;;;4976934;28;20422;-54
2022/11/30 07:51:30;;;;;;;24.00;15.53;;;5.60;1.00;;;;;;4977173;28;20437;-55
2022/11/30 07:53:57;;;;;;;30.23;18.20;;;5.60;1.00;;;;;;4977380;28;20933;-56
2022/11/30 07:56:23;;;;;;;26.40;16.53;;;5.60;1.00;;;;;;4976930;28;20575;-56
2022/11/30 07:58:52;;;;;;;24.37;17.20;;;5.70;1.00;;;;;;4976995;28;20437;-54
2022/11/30 08:01:21;;;;;;;27.03;17.40;;;5.80;1.00;;;;;;4977084;28;20427;-55
2022/11/30 08:03:47;;;;;;;28.27;17.77;;;5.80;1.00;;;;;;4976835;28;20444;-54
2022/11/30 08:06:16;;;;;;;25.80;17.70;;;5.80;1.00;;;;;;4977254;28;20957;-55
2022/11/30 08:08:43;;;;;;;24.43;16.40;;;5.90;1.00;;;;;;4976887;28;20536;-56
2022/11/30 08:11:11;;;;;;;26.37;17.83;;;6.00;1.00;;;;;;4976590;28;20448;-55
2022/11/30 08:13:38;;;;;;;30.27;21.23;;;6.00;1.00;;;;;;4976645;28;20511;-54
2022/11/30 08:16:12;;;;;;;26.70;17.27;;;6.00;1.00;;;;;;4976819;28;20452;-55
2022/11/30 08:18:39;;;;;;;25.33;18.43;;;6.10;1.00;;;;;;4976425;28;20487;-58
2022/11/30 08:21:06;;;;;;;22.30;16.20;;;6.20;1.00;;;;;;4976905;28;20431;-54
2022/11/30 08:23:36;;;;;;;31.23;16.60;;;6.20;1.00;;;;;;4976860;28;20433;-54
2022/11/30 08:26:07;;;;;;;34.60;19.30;;;6.20;1.00;;;;;;4976513;28;20429;-55
2022/11/30 08:28:36;;;;;;;24.03;16.17;;;6.30;1.00;;;;;;4976864;28;20523;-55
2022/11/30 08:31:08;;;;;;;26.00;17.70;;;6.30;1.00;;;;;;4976488;28;20433;-56
2022/11/30 08:33:35;;;;;;;20.93;14.60;;;6.40;1.00;;;;;;4976380;28;20906;-55
2022/11/30 08:36:09;;;;;;;23.50;16.67;;;6.40;1.00;;;;;;4976281;28;20512;-54
2022/11/30 08:38:34;;;;;;;24.10;16.53;;;6.40;1.00;;;;;;4976553;28;20465;-56
2022/11/30 08:41:01;;;;;;;27.83;17.47;;;6.30;1.00;;;;;;4958827;28;20441;-55
2022/11/30 08:43:27;;;;;;;23.43;16.60;;;6.30;1.00;;;;;;4975984;28;20247;-55
2022/11/30 08:45:53;;;;;;;29.90;17.37;;;6.30;1.00;;;;;;4975036;28;20832;-54
2022/11/30 08:48:19;;;;;;;23.83;16.70;;;6.30;1.00;;;;;;4975921;28;20434;-55
2022/11/30 08:50:45;;;;;;;24.27;16.47;;;6.30;1.00;;;;;;4975863;28;20329;-56
2022/11/30 08:53:10;;;;;;;23.50;17.63;;;6.40;1.00;;;;;;4976500;28;20954;-57
2022/11/30 08:55:36;;;;;;;26.83;16.70;;;6.30;1.00;;;;;;4975846;28;20277;-56
2022/11/30 08:58:01;;;;;;;26.37;18.10;;;6.30;1.00;;;;;;4990793;28;20209;-55
2022/11/30 09:00:27;;;;;;;23.87;16.97;;;6.40;1.00;;;;;;4976070;28;20306;-54
2022/11/30 09:02:53;;;;;;;28.00;16.57;;;6.40;1.00;;;;;;4975739;28;20253;-54
2022/11/30 09:05:18;;;;;;;25.03;17.27;;;6.40;1.00;;;;;;4975604;28;20248;-55
2022/11/30 09:07:44;;;;;;;26.43;17.20;;;6.50;1.00;;;;;;4975817;28;20656;-56
2022/11/30 09:10:10;;;;;;;27.50;18.17;;;6.50;1.00;;;;;;4975486;28;20198;-54
2022/11/30 09:12:37;;;;;;;26.47;17.50;;;6.60;1.00;;;;;;4975931;28;20577;-56
2022/11/30 09:15:04;;;;;;;29.73;17.60;;;6.60;1.00;;;;;;4975477;28;21018;-55
2022/11/30 09:17:29;;;;;;;24.73;16.23;;;6.70;1.00;;;;;;4975898;28;20447;-55
2022/11/30 09:19:55;;;;;;;24.07;17.20;;;6.70;1.00;;;;;;4975646;28;20421;-55
2022/11/30 09:22:21;;;;;;;25.10;17.17;;;6.80;1.00;;;;;;4975651;28;20576;-56
2022/11/30 09:24:46;;;;;;;23.47;16.60;;;6.80;1.00;;;;;;4975625;28;20201;-56
2022/11/30 09:27:12;;;;;;;27.00;17.17;;;6.80;1.00;;;;;;4975375;28;20274;-55
2022/11/30 09:29:38;;;;;;;25.63;17.17;;;7.00;1.00;;;;;;4975854;28;20196;-55
2022/11/30 09:32:04;;;;;;;27.00;18.17;;;7.10;1.00;;;;;;4975204;28;20433;-55
2022/11/30 09:34:29;;;;;;;26.27;16.67;;;7.50;1.00;;;;;;4975134;28;20292;-54
2022/11/30 09:36:55;;;;;;;26.27;16.63;;;7.60;1.00;;;;;;4975397;28;20557;-54
2022/11/30 09:39:20;;;;;;;25.40;17.27;;;7.70;1.00;;;;;;4975309;28;20188;-55
2022/11/30 09:41:52;;;;;;;24.07;16.73;;;7.60;1.00;;;;;;4975026;28;20188;-55
2022/11/30 09:44:50;;;;;;;29.20;17.40;;;7.50;1.00;;;;;;4975069;28;20197;-55
2022/11/30 09:47:32;;;;;;;24.53;16.50;;;7.50;1.00;;;;;;4975123;28;20556;-55
2022/11/30 09:50:28;;;;;;;24.60;17.10;;;7.50;1.00;;;;;;4974885;28;20529;-56
2022/11/30 09:53:08;;;;;;;23.20;16.23;;;7.50;1.00;;;;;;4970072;28;20442;-54
2022/11/30 09:55:39;;;;;;;25.80;17.90;;;7.30;1.00;;;;;;4974971;28;20504;-56
2022/11/30 09:58:06;;;;;;;23.03;17.00;;;7.20;1.00;;;;;;4974252;28;20466;-53
2022/11/30 10:00:33;;;;;;;28.87;18.63;;;7.20;1.00;;;;;;4974567;28;20429;-55
2022/11/30 10:03:02;;;;;;;27.60;16.70;;;7.10;1.00;;;;;;4974440;28;20441;-54
2022/11/30 10:05:44;;;;;;;30.70;17.30;;;7.10;1.00;;;;;;4974676;28;20412;-56
2022/11/30 10:08:45;;;;;;;25.60;15.77;;;7.20;1.00;;;;;;4974802;28;20444;-55
2022/11/30 10:11:30;;;;;;;26.77;18.20;;;7.20;1.00;;;;;;4974507;28;20434;-55
2022/11/30 10:14:01;;;;;;;25.10;17.97;;;7.10;1.00;;;;;;4974642;28;20441;-55
2022/11/30 10:16:42;;;;;;;25.30;16.43;;;7.10;1.00;;;;;;4974111;28;20556;-55
2022/11/30 10:19:26;;;;;;;29.63;17.70;;;7.20;1.00;;;;;;4974607;28;20437;-54
2022/11/30 10:21:58;;;;;;;24.57;17.77;;;7.30;1.00;;;;;;4974858;28;20429;-55
2022/11/30 10:24:34;;;;;;;26.40;17.50;;;7.30;1.00;;;;;;4974303;28;20854;-55
2022/11/30 10:27:15;;;;;;;27.60;18.40;;;7.40;1.00;;;;;;4974318;28;20442;-56
2022/11/30 10:29:42;;;;;;;25.83;17.37;;;7.40;1.00;;;;;;4974175;28;20454;-55
2022/11/30 10:32:32;;;;;;;25.60;17.53;;;7.40;1.00;;;;;;4974336;28;20466;-56
2022/11/30 10:35:13;;;;;;;25.90;17.07;;;7.40;1.00;;;;;;4974368;28;20990;-55
2022/11/30 10:37:41;;;;;;;27.77;18.47;;;7.40;1.00;;;;;;4974301;28;20475;-55
2022/11/30 10:40:16;;;;;;;25.50;16.93;;;7.40;1.00;;;;;;4974158;28;20564;-55
2022/11/30 10:42:50;;;;;;;25.90;17.27;;;7.50;1.00;;;;;;4974211;28;20432;-55
2022/11/30 10:45:27;;;;;;;20.90;14.97;;;7.60;1.00;;;;;;4973672;28;20476;-55
2022/11/30 10:48:05;;;;;;;21.80;16.30;;;7.50;1.00;;;;;;4974203;28;20445;-54
2022/11/30 10:50:31;;;;;;;22.50;16.20;;;7.50;1.00;;;;;;4974352;28;20456;-53
2022/11/30 10:52:59;;;;;;;26.13;17.13;;;7.50;1.00;;;;;;4974015;28;20426;-55
2022/11/30 10:55:28;;;;;;;23.90;17.03;;;7.70;1.00;;;;;;4974024;28;20192;-54
2022/11/30 10:58:00;;;;;;;22.00;17.30;;;7.70;1.00;;;;;;4973882;28;20567;-55
2022/11/30 11:00:26;;;;;;;21.77;16.20;;;7.90;1.00;;;;;;4974284;28;20441;-55
2022/11/30 11:02:52;;;;;;;23.57;16.00;;;8.00;1.00;;;;;;4975527;28;20441;-55
2022/11/30 11:05:21;;;;;;;21.40;15.97;;;8.10;1.00;;;;;;4977981;28;20191;-55
2022/11/30 11:07:46;;;;;;;20.60;14.83;;;8.10;1.00;;;;;;4977760;28;20524;-54
2022/11/30 11:10:15;;;;;;;21.73;15.63;;;8.10;1.00;;;;;;4978048;28;20597;-56
2022/11/30 11:12:47;;;;;;;24.97;16.20;;;8.20;1.00;;;;;;4977868;28;20249;-55
2022/11/30 11:15:21;;;;;;;21.50;14.33;;;8.30;1.00;;;;;;4977832;28;20445;-56
2022/11/30 11:17:47;;;;;;;23.60;15.50;;;8.30;1.00;;;;;;4977743;28;20832;-58
2022/11/30 11:20:30;;;;;;;22.03;15.60;;;8.50;1.00;;;;;;4977891;28;20987;-55
2022/11/30 11:22:56;;;;;;;20.90;15.33;;;8.50;1.00;;;;;;4977869;28;20803;-55
2022/11/30 11:25:35;;;;;;;22.27;16.17;;;8.60;1.00;;;;;;4978215;28;20461;-56
2022/11/30 11:28:07;;;;;;;19.90;14.57;;;8.70;1.00;;;;;;4977473;28;20193;-54
2022/11/30 11:30:35;;;;;;;36.93;21.77;;;8.70;1.00;;;;;;4977538;28;20534;-55
2022/11/30 11:33:01;;;;;;;21.33;15.70;;;8.70;1.00;;;;;;4977296;28;20445;-55
2022/11/30 11:35:45;;;;;;;24.47;17.10;;;8.60;1.00;;;;;;4977161;28;20435;-55
2022/11/30 11:38:27;;;;;;;25.30;17.90;;;8.50;1.00;;;;;;4977297;28;20243;-55
2022/11/30 11:41:05;;;;;;;22.80;16.30;;;8.30;1.00;;;;;;4980761;28;21129;-54
2022/11/30 11:43:34;;;;;;;26.63;17.53;;;8.20;1.00;;;;;;4995884;28;20461;-56
2022/11/30 11:46:09;;;;;;;26.97;16.00;;;8.00;1.00;;;;;;4996530;28;20487;-55
2022/11/30 11:48:40;;;;;;;24.50;17.17;;;8.00;1.00;;;;;;4996310;28;20471;-55
2022/11/30 11:51:08;;;;;;;23.13;16.50;;;7.90;1.00;;;;;;4996885;28;20444;-56
2022/11/30 11:53:50;;;;;;;21.80;15.87;;;7.90;1.00;;;;;;4996403;28;20920;-55
2022/11/30 11:56:28;;;;;;;24.30;17.63;;;7.90;1.00;;;;;;4996360;28;20480;-56
2022/11/30 11:59:02;;;;;;;23.80;16.73;;;7.90;1.00;;;;;;4996660;28;20465;-55
2022/11/30 12:01:48;;;;;;;22.90;15.77;;;7.90;1.00;;;;;;4996331;28;20469;-55
2022/11/30 12:04:13;;;;;;;17.77;14.30;;;8.00;1.00;;;;;;4947648;28;20915;-56
2022/11/30 12:06:43;;;;;;;19.87;15.23;;;8.00;1.00;;;;;;4996343;28;20433;-54
2022/11/30 12:09:16;;;;;;;20.73;15.10;;;8.00;1.00;;;;;;4996050;28;20549;-56
2022/11/30 12:11:45;;;;;;;22.50;15.47;;;7.90;1.00;;;;;;4996175;28;20432;-54
2022/11/30 12:14:13;;;;;;;20.10;14.50;;;8.00;1.00;;;;;;4995384;28;20451;-55
2022/11/30 12:17:00;;;;;;;20.27;14.80;;;8.10;1.00;;;;;;4996374;28;20477;-55
2022/11/30 12:19:44;;;;;;;20.10;13.70;;;8.00;1.00;;;;;;4995935;28;20479;-57
2022/11/30 12:22:38;;;;;;;18.83;14.63;;;8.20;1.00;;;;;;4995997;28;20444;-56
2022/11/30 12:25:31;;;;;;;23.87;16.30;;;8.40;1.00;;;;;;4995866;28;20433;-57
2022/11/30 12:28:15;;;;;;;21.37;15.93;;;8.40;1.00;;;;;;4978285;28;20454;-54
2022/11/30 12:31:12;;;;;;;22.50;16.67;;;8.40;1.00;;;;;;4995649;28;20431;-56
2022/11/30 12:33:56;;;;;;;22.70;15.90;;;8.40;1.00;;;;;;4981526;28;20441;-56
2022/11/30 12:36:40;;;;;;;24.63;16.90;;;8.60;1.00;;;;;;4995653;28;20515;-54
2022/11/30 12:39:14;;;;;;;25.03;15.90;;;8.60;1.00;;;;;;4995801;28;20399;-55
2022/11/30 12:42:06;;;;;;;22.13;16.00;;;8.40;1.00;;;;;;4995984;28;20436;-54
2022/11/30 12:44:56;;;;;;;22.60;15.93;;;8.30;1.00;;;;;;4995612;28;20464;-57
2022/11/30 12:47:22;;;;;;;24.33;16.10;;;8.20;1.00;;;;;;4995405;28;20468;-54
2022/11/30 12:50:07;;;;;;;20.27;15.27;;;8.20;1.00;;;;;;4995598;28;20982;-56
2022/11/30 12:52:52;;;;;;;20.30;13.73;;;8.20;1.00;;;;;;4995431;28;20192;-55
2022/11/30 12:55:21;;;;;;;26.00;17.00;;;8.10;1.00;;;;;;4995514;28;20419;-55
2022/11/30 12:58:19;;;;;;;19.97;15.00;;;8.00;1.00;;;;;;4995365;28;20438;-55
2022/11/30 13:00:59;;;;;;;21.57;15.70;;;8.00;1.00;;;;;;4978063;28;20423;-56
2022/11/30 13:03:40;;;;;;;20.67;15.33;;;8.10;1.00;;;;;;4995196;28;20537;-55